Time;durP1;ratioP1;P1;durP2;ratioP2;P2;SDS_P1;SDS_P2;PMS_P1;PMS_P2;Temp;Humidity;BMP_temperature;BMP_pressure;BME280_temperature;BME280_humidity;BME280_pressure;Samples;Min_cycle;Max_cycle;Signal;HPM_P1;HPM_P2
2021/04/20 00:01:12;;;;;;;84.70;51.30;;;6.60;99.90;;;;;;5091239;28;20238;-86
2021/04/20 00:03:38;;;;;;;86.40;49.23;;;6.60;99.90;;;;;;5091202;28;20186;-86
2021/04/20 00:06:06;;;;;;;94.37;51.67;;;6.50;99.90;;;;;;5090880;28;20796;-86
2021/04/20 00:08:31;;;;;;;89.97;50.60;;;6.40;99.90;;;;;;5093505;28;20170;-85
2021/04/20 00:10:57;;;;;;;85.70;49.67;;;6.40;99.90;;;;;;5096048;28;20491;-86
2021/04/20 00:13:23;;;;;;;89.17;50.80;;;6.40;99.90;;;;;;5094813;28;20167;-86
2021/04/20 00:15:48;;;;;;;92.13;54.00;;;6.30;99.90;;;;;;5094936;28;20273;-87
2021/04/20 00:18:14;;;;;;;91.87;51.40;;;6.40;99.90;;;;;;5094504;28;20174;-86
2021/04/20 00:20:40;;;;;;;88.03;52.60;;;6.30;99.90;;;;;;5094685;28;20685;-86
2021/04/20 00:23:07;;;;;;;87.57;53.30;;;6.30;99.90;;;;;;5094573;28;20170;-86
2021/04/20 00:25:33;;;;;;;103.67;50.77;;;6.30;99.90;;;;;;5094643;28;20421;-87
2021/04/20 00:27:59;;;;;;;97.87;53.87;;;6.30;99.90;;;;;;5094665;28;20423;-86
2021/04/20 00:30:25;;;;;;;109.83;56.50;;;6.40;99.90;;;;;;5094602;28;20420;-86
2021/04/20 00:32:51;;;;;;;105.17;54.17;;;6.50;99.90;;;;;;5095375;28;20253;-86
2021/04/20 00:35:16;;;;;;;105.00;58.07;;;6.50;99.90;;;;;;5094507;28;20417;-86
2021/04/20 00:37:43;;;;;;;96.83;53.77;;;6.50;99.90;;;;;;5094469;28;20431;-86
2021/04/20 00:40:11;;;;;;;105.77;58.50;;;6.40;99.90;;;;;;5094538;28;20198;-86
2021/04/20 00:42:57;;;;;;;115.47;57.20;;;6.50;99.90;;;;;;5094085;28;20470;-87
2021/04/20 00:45:27;;;;;;;107.53;54.87;;;6.50;99.90;;;;;;5093857;28;20429;-86
2021/04/20 00:47:53;;;;;;;106.23;55.23;;;6.40;99.90;;;;;;5094244;28;20943;-86
2021/04/20 00:50:23;;;;;;;112.20;57.50;;;6.30;99.90;;;;;;5094049;28;20512;-86
2021/04/20 00:52:49;;;;;;;101.00;53.97;;;6.30;99.90;;;;;;5094276;28;20451;-86
2021/04/20 00:55:15;;;;;;;109.10;52.10;;;6.30;99.90;;;;;;5094167;28;20429;-86
2021/04/20 00:57:40;;;;;;;101.83;52.67;;;6.20;99.90;;;;;;5093726;28;20182;-85
2021/04/20 01:00:19;;;;;;;105.13;52.60;;;6.30;99.90;;;;;;5093857;28;20287;-86
2021/04/20 01:02:45;;;;;;;95.67;51.80;;;6.10;99.90;;;;;;5093987;28;20189;-85
2021/04/20 01:05:15;;;;;;;87.53;48.13;;;6.00;99.90;;;;;;5093746;28;20420;-86
2021/04/20 01:07:43;;;;;;;89.90;48.83;;;6.00;99.90;;;;;;5093630;28;20477;-86
2021/04/20 01:10:09;;;;;;;90.57;48.40;;;5.90;99.90;;;;;;5093150;28;20446;-87
2021/04/20 01:12:36;;;;;;;79.83;45.83;;;5.90;99.90;;;;;;5093784;28;20420;-86
2021/04/20 01:15:04;;;;;;;79.50;43.37;;;6.00;99.90;;;;;;5093636;28;20423;-86
2021/04/20 01:17:30;;;;;;;83.67;45.67;;;6.00;99.90;;;;;;5093745;28;20445;-86
2021/04/20 01:20:00;;;;;;;72.67;47.10;;;5.90;99.90;;;;;;5094486;28;20429;-86
2021/04/20 01:22:29;;;;;;;85.93;47.63;;;5.90;99.90;;;;;;5093362;28;20183;-86
2021/04/20 01:24:55;;;;;;;94.83;50.20;;;5.90;99.90;;;;;;5093041;28;20416;-87
2021/04/20 01:27:23;;;;;;;100.20;49.20;;;5.90;99.90;;;;;;5093277;28;20446;-87
2021/04/20 01:29:52;;;;;;;97.60;52.23;;;5.80;99.90;;;;;;5093484;28;20170;-86
2021/04/20 01:32:18;;;;;;;97.67;54.50;;;5.80;99.90;;;;;;5093286;28;20508;-86
2021/04/20 01:34:44;;;;;;;100.83;56.60;;;5.70;99.90;;;;;;5094627;28;20824;-86
2021/04/20 01:37:09;;;;;;;102.37;55.43;;;5.80;99.90;;;;;;5093150;28;20771;-86
2021/04/20 01:39:35;;;;;;;107.53;55.90;;;5.80;99.90;;;;;;5094210;28;20572;-86
2021/04/20 01:42:03;;;;;;;111.27;56.50;;;5.90;99.90;;;;;;5092911;28;20218;-86
2021/04/20 01:44:29;;;;;;;102.40;55.60;;;5.90;99.90;;;;;;5095207;28;20452;-86
2021/04/20 01:46:54;;;;;;;96.13;53.17;;;5.80;99.90;;;;;;5098744;28;20464;-85
2021/04/20 01:49:21;;;;;;;88.53;51.63;;;5.60;99.90;;;;;;5093804;28;20534;-87
2021/04/20 01:51:52;;;;;;;82.67;50.57;;;5.50;99.90;;;;;;5093945;28;20265;-86
2021/04/20 01:54:17;;;;;;;95.93;51.40;;;5.40;99.90;;;;;;5093243;28;20810;-86
2021/04/20 01:56:45;;;;;;;113.13;56.13;;;5.40;99.90;;;;;;5093225;28;20539;-86
2021/04/20 01:59:10;;;;;;;98.63;53.27;;;5.60;99.90;;;;;;5092881;28;20178;-86
2021/04/20 02:01:36;;;;;;;99.33;53.17;;;5.60;99.90;;;;;;5092904;28;20475;-86
2021/04/20 02:04:02;;;;;;;91.20;50.90;;;5.60;99.90;;;;;;5092508;28;20174;-86
2021/04/20 02:06:28;;;;;;;85.63;48.27;;;5.60;99.90;;;;;;5092699;28;20349;-86
2021/04/20 02:08:54;;;;;;;105.37;49.20;;;5.50;99.90;;;;;;5092594;28;20413;-86
2021/04/20 02:11:22;;;;;;;89.63;46.70;;;5.40;99.90;;;;;;5092725;28;20428;-86
2021/04/20 02:13:48;;;;;;;123.67;49.23;;;5.30;99.90;;;;;;5092553;28;20193;-86
2021/04/20 02:16:15;;;;;;;82.73;46.20;;;5.40;99.90;;;;;;5092082;28;20420;-86
2021/04/20 02:18:49;;;;;;;98.17;48.70;;;5.30;99.90;;;;;;5092333;28;20470;-86
2021/04/20 02:21:17;;;;;;;100.37;50.57;;;5.30;99.90;;;;;;5092424;28;20956;-85
2021/04/20 02:23:43;;;;;;;75.53;45.60;;;5.40;99.90;;;;;;5092453;28;20444;-84
2021/04/20 02:26:12;;;;;;;86.07;47.97;;;5.40;99.90;;;;;;5092914;28;20788;-84
2021/04/20 02:28:38;;;;;;;84.57;45.80;;;5.40;99.90;;;;;;5092249;28;20421;-84
2021/04/20 02:31:06;;;;;;;77.37;46.13;;;5.40;99.90;;;;;;5093139;28;21048;-84
2021/04/20 02:33:32;;;;;;;72.67;45.30;;;5.30;99.90;;;;;;5092289;28;20519;-84
2021/04/20 02:35:59;;;;;;;92.53;47.43;;;5.30;99.90;;;;;;5092383;28;20511;-85
2021/04/20 02:38:26;;;;;;;89.23;46.57;;;5.30;99.90;;;;;;5091943;28;20416;-85
2021/04/20 02:40:56;;;;;;;91.23;46.90;;;5.40;99.90;;;;;;5093014;28;20464;-86
2021/04/20 02:43:23;;;;;;;94.87;48.30;;;5.40;99.90;;;;;;5091796;28;20413;-85
2021/04/20 02:45:53;;;;;;;167.63;53.23;;;5.50;99.90;;;;;;5092015;28;21057;-85
2021/04/20 02:48:19;;;;;;;420.47;62.00;;;5.30;99.90;;;;;;5092044;28;20424;-85
2021/04/20 02:50:45;;;;;;;424.03;59.90;;;5.20;99.90;;;;;;5091888;28;20421;-86
2021/04/20 02:53:17;;;;;;;448.73;64.73;;;5.10;99.90;;;;;;5091787;28;20178;-85
2021/04/20 02:55:44;;;;;;;374.00;58.00;;;4.90;99.90;;;;;;5091900;28;20417;-85
2021/04/20 02:58:19;;;;;;;284.27;46.23;;;4.80;99.90;;;;;;5092135;28;20419;-85
2021/04/20 03:00:49;;;;;;;282.07;46.47;;;4.80;99.90;;;;;;5091809;28;20487;-85
2021/04/20 03:03:16;;;;;;;286.30;46.80;;;4.70;99.90;;;;;;5093246;28;20402;-85
2021/04/20 03:05:42;;;;;;;181.47;45.63;;;4.60;99.90;;;;;;5091568;28;20429;-84
2021/04/20 03:08:08;;;;;;;112.30;44.13;;;4.70;99.90;;;;;;5091722;28;20408;-85
2021/04/20 03:10:38;;;;;;;140.23;44.87;;;4.70;99.90;;;;;;5091828;28;20932;-86
2021/04/20 03:13:05;;;;;;;189.00;50.23;;;4.60;99.90;;;;;;5091578;28;20765;-85
2021/04/20 03:15:31;;;;;;;122.63;48.17;;;4.60;99.90;;;;;;5092838;28;20504;-85
2021/04/20 03:17:57;;;;;;;95.30;48.60;;;4.60;99.90;;;;;;5091786;28;20421;-84
2021/04/20 03:20:23;;;;;;;97.40;49.07;;;4.60;99.90;;;;;;5092034;28;20467;-84
2021/04/20 03:22:50;;;;;;;94.70;48.93;;;4.70;99.90;;;;;;5092605;28;20182;-84
2021/04/20 03:25:22;;;;;;;94.87;49.00;;;4.80;99.90;;;;;;5093175;28;20225;-84
2021/04/20 03:27:51;;;;;;;91.77;46.93;;;4.90;99.90;;;;;;5093035;28;20444;-84
2021/04/20 03:30:22;;;;;;;115.17;46.80;;;4.90;99.90;;;;;;5092042;28;20507;-84
2021/04/20 03:33:01;;;;;;;101.47;46.57;;;4.90;99.90;;;;;;5091622;28;20420;-85
2021/04/20 03:35:42;;;;;;;115.00;52.47;;;5.00;99.90;;;;;;5091369;28;20470;-85
2021/04/20 03:38:22;;;;;;;93.73;49.17;;;5.10;99.90;;;;;;5091832;28;20446;-85
2021/04/20 03:40:53;;;;;;;110.37;52.50;;;5.20;99.90;;;;;;5092919;28;20483;-85
2021/04/20 03:43:25;;;;;;;111.27;57.27;;;5.30;99.90;;;;;;5094314;28;20524;-83
2021/04/20 03:46:03;;;;;;;94.83;50.03;;;5.20;99.90;;;;;;5095220;28;20437;-86
2021/04/20 03:48:35;;;;;;;114.37;57.47;;;5.20;99.90;;;;;;5095967;28;20412;-85
2021/04/20 03:51:05;;;;;;;101.47;57.97;;;5.30;99.90;;;;;;5095579;28;20939;-85
2021/04/20 03:53:32;;;;;;;83.67;51.47;;;5.20;99.90;;;;;;5094912;28;21005;-86
2021/04/20 03:56:00;;;;;;;94.43;49.27;;;5.20;99.90;;;;;;5095128;28;20515;-85
2021/04/20 03:58:28;;;;;;;95.67;50.90;;;5.10;99.90;;;;;;5096293;28;20415;-84
2021/04/20 04:00:58;;;;;;;93.00;48.57;;;5.00;99.90;;;;;;5094710;28;20836;-84
2021/04/20 04:03:26;;;;;;;91.97;50.07;;;5.00;99.90;;;;;;5096384;28;20773;-86
2021/04/20 04:05:53;;;;;;;91.67;49.60;;;4.90;99.90;;;;;;5095831;28;20420;-81
2021/04/20 04:08:20;;;;;;;107.77;55.50;;;5.00;99.90;;;;;;5096156;28;20412;-84
2021/04/20 04:10:50;;;;;;;102.53;52.33;;;5.20;99.90;;;;;;5097967;28;20408;-85
2021/04/20 04:13:20;;;;;;;99.60;52.83;;;5.30;99.90;;;;;;5096095;28;20408;-85
2021/04/20 04:15:47;;;;;;;92.43;51.97;;;5.30;99.90;;;;;;5095333;28;20424;-85
2021/04/20 04:18:15;;;;;;;89.80;51.03;;;5.30;99.90;;;;;;5096328;28;20409;-85
2021/04/20 04:20:41;;;;;;;86.70;48.40;;;5.10;99.90;;;;;;5095431;28;20500;-83
2021/04/20 04:23:14;;;;;;;111.87;46.63;;;4.90;99.90;;;;;;5094606;28;20440;-85
2021/04/20 04:25:47;;;;;;;116.70;47.67;;;4.90;99.90;;;;;;5096108;28;20491;-84
2021/04/20 04:28:14;;;;;;;83.90;46.53;;;4.80;99.90;;;;;;5099072;28;20405;-82
2021/04/20 04:30:40;;;;;;;83.00;50.17;;;4.90;99.90;;;;;;5094522;28;20412;-85
2021/04/20 04:33:06;;;;;;;90.83;49.13;;;5.00;99.90;;;;;;5094475;28;20465;-82
2021/04/20 04:35:35;;;;;;;85.27;48.87;;;5.00;99.90;;;;;;5094716;28;20416;-84
2021/04/20 04:38:01;;;;;;;66.63;39.80;;;5.10;99.90;;;;;;5098787;28;20417;-85
2021/04/20 04:40:27;;;;;;;95.67;51.17;;;5.30;99.90;;;;;;5099282;28;20959;-84
2021/04/20 04:42:53;;;;;;;95.43;53.70;;;5.40;99.90;;;;;;5097792;28;20451;-85
2021/04/20 04:45:19;;;;;;;100.33;51.37;;;5.40;99.90;;;;;;5096104;28;20784;-84
2021/04/20 04:47:45;;;;;;;102.40;55.93;;;5.50;99.90;;;;;;5096857;28;20177;-84
2021/04/20 04:50:11;;;;;;;110.77;58.87;;;5.50;99.90;;;;;;5097624;28;20855;-85
2021/04/20 04:52:39;;;;;;;102.60;57.23;;;5.50;99.90;;;;;;5093863;28;20443;-85
2021/04/20 04:55:07;;;;;;;107.20;61.20;;;5.60;99.90;;;;;;5094368;28;20409;-85
2021/04/20 04:57:33;;;;;;;119.93;60.80;;;5.60;99.90;;;;;;5095074;28;20445;-83
2021/04/20 05:00:00;;;;;;;121.90;63.20;;;5.70;99.90;;;;;;5095606;28;20483;-84
2021/04/20 05:02:29;;;;;;;109.03;59.27;;;5.70;99.90;;;;;;5096539;28;20417;-85
2021/04/20 05:04:56;;;;;;;99.30;54.27;;;5.70;99.90;;;;;;5094153;28;20504;-85
2021/04/20 05:07:23;;;;;;;77.73;50.00;;;5.60;99.90;;;;;;5096386;28;21046;-82
2021/04/20 05:09:50;;;;;;;77.43;50.60;;;5.50;99.90;;;;;;5094721;28;20412;-85
2021/04/20 05:12:20;;;;;;;87.87;48.63;;;5.40;99.90;;;;;;5094933;28;20472;-86
2021/04/20 05:14:46;;;;;;;87.43;48.47;;;5.30;99.90;;;;;;5093703;28;20416;-84
2021/04/20 05:17:12;;;;;;;82.20;49.07;;;5.20;99.90;;;;;;5095952;28;20420;-85
2021/04/20 05:19:41;;;;;;;77.97;48.63;;;5.20;99.90;;;;;;5095628;28;20916;-84
2021/04/20 05:22:07;;;;;;;93.97;51.57;;;5.20;99.90;;;;;;5093483;28;21021;-86
2021/04/20 05:24:32;;;;;;;87.70;52.60;;;5.30;99.90;;;;;;5093991;28;20449;-84
2021/04/20 05:26:58;;;;;;;87.27;55.33;;;5.50;99.90;;;;;;5094741;28;20205;-83
2021/04/20 05:29:24;;;;;;;77.10;52.30;;;5.70;99.90;;;;;;5093906;28;20590;-85
2021/04/20 05:31:50;;;;;;;82.50;49.60;;;6.00;99.90;;;;;;5092628;28;20576;-85
2021/04/20 05:34:19;;;;;;;67.20;45.63;;;6.10;99.90;;;;;;5093273;28;20265;-84
2021/04/20 05:36:47;;;;;;;69.27;46.87;;;6.30;99.90;;;;;;5092978;28;20415;-85
2021/04/20 05:39:13;;;;;;;77.63;50.80;;;6.60;99.90;;;;;;5093558;28;20428;-85
2021/04/20 05:41:39;;;;;;;74.47;49.30;;;6.70;99.90;;;;;;5093896;28;20986;-83
2021/04/20 05:44:07;;;;;;;77.90;50.10;;;6.90;99.90;;;;;;5095375;28;20405;-85
2021/04/20 05:50:33;;;;;;;56.97;42.00;;;7.40;99.90;;;;;;4860083;28;21114;-74
2021/04/20 05:53:00;;;;;;;56.60;40.50;;;7.60;99.90;;;;;;5089223;28;20520;-74
2021/04/20 05:55:27;;;;;;;51.70;41.13;;;7.70;99.90;;;;;;5089124;28;20249;-77
2021/04/20 05:57:54;;;;;;;49.83;37.30;;;8.10;99.90;;;;;;5090750;28;20452;-74
2021/04/20 06:00:23;;;;;;;57.10;39.77;;;8.50;99.90;;;;;;5089732;28;20425;-77
2021/04/20 06:02:50;;;;;;;49.23;36.63;;;8.80;99.90;;;;;;5090590;28;20413;-75
2021/04/20 06:05:22;;;;;;;38.97;33.13;;;8.90;99.90;;;;;;5089162;28;20537;-75
2021/04/20 06:07:57;;;;;;;36.23;30.20;;;9.10;99.90;;;;;;5088753;28;20783;-75
2021/04/20 06:10:23;;;;;;;30.90;26.50;;;9.30;99.90;;;;;;5090354;28;20442;-74
2021/04/20 06:12:49;;;;;;;38.00;30.70;;;9.50;99.90;;;;;;5088771;28;20429;-75
2021/04/20 06:15:21;;;;;;;34.60;30.30;;;9.70;99.90;;;;;;5089968;28;20496;-78
2021/04/20 06:17:47;;;;;;;30.07;26.97;;;9.80;99.90;;;;;;5088580;28;20463;-75
2021/04/20 06:20:14;;;;;;;28.20;25.17;;;9.90;99.90;;;;;;5089903;28;20907;-74
2021/04/20 06:22:42;;;;;;;32.90;29.60;;;10.10;99.90;;;;;;5089797;28;20183;-75
2021/04/20 06:25:12;;;;;;;30.63;27.50;;;10.10;99.90;;;;;;5070679;28;20842;-75
2021/04/20 06:27:39;;;;;;;30.93;28.00;;;10.20;99.90;;;;;;5089914;28;20912;-75
2021/04/20 06:30:07;;;;;;;30.30;27.30;;;10.50;99.90;;;;;;5089669;28;20917;-75
2021/04/20 06:32:35;;;;;;;28.27;25.57;;;10.80;99.90;;;;;;5089804;28;20409;-75
2021/04/20 06:35:00;;;;;;;30.37;26.30;;;10.70;99.90;;;;;;5100814;22;20933;-75
2021/04/20 06:37:26;;;;;;;34.70;31.20;;;10.70;99.90;;;;;;5069468;28;20483;-74
2021/04/20 06:39:52;;;;;;;27.07;23.50;;;10.90;99.90;;;;;;5068229;28;20205;-73
2021/04/20 06:42:23;;;;;;;22.87;20.70;;;11.20;99.90;;;;;;5067765;28;20183;-77
2021/04/20 06:44:58;;;;;;;25.70;23.20;;;11.60;99.90;;;;;;5063771;28;20183;-75
2021/04/20 06:47:30;;;;;;;23.90;21.63;;;12.00;99.90;;;;;;5067816;28;20796;-76
2021/04/20 06:50:05;;;;;;;32.23;22.40;;;12.30;99.90;;;;;;5068868;28;20810;-75
2021/04/20 06:53:19;;;;;;;26.73;21.97;;;12.40;99.90;;;;;;5069134;28;20416;-74
2021/04/20 06:56:07;;;;;;;23.23;21.03;;;12.60;99.90;;;;;;5047449;28;20419;-75
2021/04/20 06:59:12;;;;;;;26.00;23.60;;;12.90;99.90;;;;;;5033575;28;20454;-74
2021/04/20 07:01:49;;;;;;;26.87;24.17;;;13.00;99.90;;;;;;5046489;28;20415;-75
2021/04/20 07:04:34;;;;;;;29.40;26.00;;;13.00;99.90;;;;;;5054314;28;20517;-75
2021/04/20 07:07:50;;;;;;;27.50;24.70;;;13.50;99.90;;;;;;5055450;28;20519;-75
2021/04/20 07:10:33;;;;;;;27.70;24.83;;;14.10;99.90;;;;;;5033232;28;20554;-75
2021/04/20 07:13:02;;;;;;;28.97;25.90;;;14.00;99.90;;;;;;5053209;28;20423;-75
2021/04/20 07:15:29;;;;;;;26.03;22.20;;;13.80;99.90;;;;;;5055598;28;20425;-75
2021/04/20 07:18:12;;;;;;;27.17;24.47;;;14.00;99.90;;;;;;5055453;28;20483;-75
2021/04/20 07:20:57;;;;;;;26.00;20.63;;;14.70;99.90;;;;;;5054492;28;20433;-74
2021/04/20 07:24:02;;;;;;;18.57;17.00;;;13.80;99.90;;;;;;5053975;28;20431;-75
2021/04/20 07:27:03;;;;;;;17.37;15.97;;;14.00;99.90;;;;;;5054664;28;20466;-73
2021/04/20 07:29:50;;;;;;;22.03;19.17;;;13.80;99.90;;;;;;5054370;28;20402;-74
2021/04/20 07:32:31;;;;;;;24.00;20.17;;;14.20;99.90;;;;;;5054992;28;20431;-76
2021/04/20 07:35:41;;;;;;;28.47;22.90;;;14.30;99.90;;;;;;5052225;28;20422;-76
2021/04/20 07:38:29;;;;;;;24.17;21.63;;;13.80;99.90;;;;;;5047969;28;20418;-74
2021/04/20 07:41:21;;;;;;;25.00;22.37;;;14.70;99.90;;;;;;5053119;28;20422;-75
2021/04/20 07:44:08;;;;;;;25.77;23.07;;;14.80;99.90;;;;;;5054752;28;20444;-74
2021/04/20 07:46:41;;;;;;;25.73;23.43;;;14.00;99.90;;;;;;5053524;28;20482;-77
2021/04/20 07:49:22;;;;;;;25.73;22.77;;;14.10;99.90;;;;;;5053362;28;20809;-74
2021/04/20 07:52:00;;;;;;;28.07;25.37;;;14.60;99.90;;;;;;5054646;28;20461;-75
2021/04/20 07:54:25;;;;;;;28.77;25.83;;;15.40;99.90;;;;;;5053248;28;20421;-74
2021/04/20 07:57:10;;;;;;;29.97;26.80;;;15.30;99.90;;;;;;5053332;28;20761;-74
2021/04/20 07:59:44;;;;;;;29.60;26.97;;;16.20;99.90;;;;;;5054669;28;20214;-76
2021/04/20 08:02:21;;;;;;;28.40;25.57;;;15.80;99.90;;;;;;5054874;28;20533;-76
2021/04/20 08:05:26;;;;;;;29.50;26.40;;;16.30;99.90;;;;;;5054766;28;20418;-76
2021/04/20 08:07:54;;;;;;;26.63;24.03;;;15.00;99.90;;;;;;5051757;28;20461;-72
2021/04/20 08:10:26;;;;;;;26.07;23.40;;;16.30;99.90;;;;;;5052872;28;20415;-77
2021/04/20 08:13:01;;;;;;;27.70;24.83;;;16.30;99.90;;;;;;5053336;28;20821;-77
2021/04/20 08:15:35;;;;;;;27.73;25.13;;;15.40;99.90;;;;;;5053867;28;20410;-76
2021/04/20 08:18:07;;;;;;;27.27;24.50;;;15.20;99.90;;;;;;5053287;28;21019;-76
2021/04/20 08:20:35;;;;;;;26.90;24.47;;;16.00;99.90;;;;;;5052780;28;20422;-77
2021/04/20 08:23:03;;;;;;;30.63;27.60;;;16.20;99.90;;;;;;5052839;28;20450;-76
2021/04/20 08:25:40;;;;;;;30.80;25.20;;;16.50;96.90;;;;;;5052324;28;20469;-76
2021/04/20 08:28:18;;;;;;;28.73;26.23;;;17.00;83.70;;;;;;5052361;28;20426;-76
2021/04/20 08:30:47;;;;;;;26.27;24.03;;;16.50;89.90;;;;;;5051381;28;20424;-76
2021/04/20 08:33:21;;;;;;;29.00;26.50;;;17.40;41.70;;;;;;5051087;28;20449;-77
2021/04/20 08:35:53;;;;;;;30.13;27.53;;;16.90;11.60;;;;;;5052688;28;20461;-75
2021/04/20 08:38:25;;;;;;;27.43;25.30;;;16.60;1.00;;;;;;5050896;28;20426;-76
2021/04/20 08:41:06;;;;;;;25.37;23.40;;;16.30;9.20;;;;;;5051393;28;20816;-76
2021/04/20 08:43:58;;;;;;;28.57;26.27;;;17.00;1.00;;;;;;5050610;28;20939;-77
2021/04/20 08:46:29;;;;;;;39.27;29.37;;;17.50;1.00;;;;;;5049364;28;20478;-76
2021/04/20 08:49:13;;;;;;;29.00;26.33;;;17.20;1.00;;;;;;5052106;28;20418;-76
2021/04/20 08:52:01;;;;;;;30.33;27.50;;;17.70;1.00;;;;;;5052437;28;20414;-76
2021/04/20 08:54:36;;;;;;;28.57;26.07;;;17.60;1.00;;;;;;5052334;28;20943;-75
2021/04/20 08:57:13;;;;;;;26.67;24.30;;;16.20;1.00;;;;;;5052488;28;20961;-76
2021/04/20 08:59:55;;;;;;;25.93;23.63;;;15.90;1.00;;;;;;5052221;28;20426;-76
2021/04/20 09:02:59;;;;;;;27.97;24.77;;;16.90;1.00;;;;;;5052282;28;20406;-81
2021/04/20 09:05:43;;;;;;;20.73;19.17;;;16.90;1.00;;;;;;5050637;28;20457;-74
2021/04/20 09:08:23;;;;;;;28.40;26.10;;;18.20;51.50;;;;;;5051297;28;20469;-74
2021/04/20 09:11:04;;;;;;;29.40;27.10;;;18.10;1.00;;;;;;5051983;28;20433;-74
2021/04/20 09:13:38;;;;;;;29.03;26.73;;;17.80;1.00;;;;;;5051935;28;20422;-76
2021/04/20 09:16:12;;;;;;;28.33;25.93;;;18.70;99.90;;;;;;5052005;28;20426;-76
2021/04/20 09:18:43;;;;;;;27.17;25.07;;;18.00;99.90;;;;;;5051952;28;20809;-74
2021/04/20 09:21:22;;;;;;;28.87;26.67;;;18.60;66.00;;;;;;5051517;28;20427;-77
2021/04/20 09:23:54;;;;;;;28.00;25.27;;;18.90;99.90;;;;;;5051761;28;20422;-75
2021/04/20 09:26:28;;;;;;;24.33;22.33;;;18.60;99.90;;;;;;5051902;28;20489;-74
2021/04/20 09:29:05;;;;;;;14.00;12.90;;;19.40;1.00;;;;;;5052064;28;20429;-74
2021/04/20 09:31:40;;;;;;;28.50;25.97;;;19.80;1.00;;;;;;5051548;28;20453;-74
2021/04/20 09:34:09;;;;;;;24.77;22.77;;;20.20;18.50;;;;;;5050506;28;20412;-75
2021/04/20 09:36:36;;;;;;;26.00;23.90;;;19.60;99.90;;;;;;5051588;28;20490;-74
2021/04/20 09:39:04;;;;;;;26.63;24.53;;;19.50;99.90;;;;;;5051477;28;20517;-74
2021/04/20 09:41:35;;;;;;;22.80;21.10;;;19.00;99.90;;;;;;5051607;28;20950;-74
2021/04/20 09:44:18;;;;;;;22.97;21.27;;;20.00;85.90;;;;;;5051570;28;21031;-74
2021/04/20 09:47:05;;;;;;;20.67;18.60;;;19.80;1.00;;;;;;5049500;28;20496;-73
2021/04/20 09:49:54;;;;;;;22.93;21.20;;;19.40;1.00;;;;;;5048606;28;20427;-75
2021/04/20 09:52:22;;;;;;;23.70;21.90;;;19.30;1.00;;;;;;5050485;28;20454;-75
2021/04/20 09:54:56;;;;;;;24.60;22.57;;;18.80;99.90;;;;;;5051170;28;20505;-75
2021/04/20 09:57:30;;;;;;;25.70;23.80;;;19.10;93.40;;;;;;5051797;28;20439;-76
2021/04/20 10:00:06;;;;;;;24.90;23.00;;;19.40;99.90;;;;;;5051298;28;20758;-75
2021/04/20 10:02:59;;;;;;;23.17;21.43;;;20.30;2.20;;;;;;5051313;28;20414;-75
2021/04/20 10:06:09;;;;;;;24.30;22.50;;;20.50;1.00;;;;;;5050686;28;20415;-74
2021/04/20 10:09:12;;;;;;;25.30;23.30;;;19.90;1.00;;;;;;5051482;28;20483;-75
2021/04/20 10:11:42;;;;;;;26.50;24.43;;;19.20;8.00;;;;;;5051614;28;20445;-76
2021/04/20 10:14:31;;;;;;;23.80;21.90;;;19.30;1.00;;;;;;5051575;28;20418;-75
2021/04/20 10:17:02;;;;;;;24.80;22.80;;;19.60;1.00;;;;;;5048977;28;20493;-76
2021/04/20 10:19:35;;;;;;;25.90;24.03;;;18.90;99.90;;;;;;5047854;28;20472;-75
2021/04/20 10:22:21;;;;;;;26.00;24.00;;;19.10;99.90;;;;;;5049923;28;20441;-76
2021/04/20 10:25:11;;;;;;;25.70;23.73;;;19.30;25.50;;;;;;5047545;28;20931;-76
2021/04/20 10:27:36;;;;;;;26.23;24.00;;;19.00;1.00;;;;;;5048913;28;20423;-75
2021/04/20 10:30:11;;;;;;;20.60;19.00;;;19.30;99.90;;;;;;5048674;28;20441;-75
2021/04/20 10:32:45;;;;;;;29.30;27.20;;;19.80;1.00;;;;;;5051166;28;20183;-75
2021/04/20 10:35:17;;;;;;;27.70;25.50;;;19.80;1.00;;;;;;5051473;28;20453;-75
2021/04/20 10:37:51;;;;;;;27.50;25.27;;;19.40;1.00;;;;;;5053604;28;20796;-74
2021/04/20 10:40:34;;;;;;;;;;;;;;;;;;;;;
2021/04/20 10:43:13;;;;;;;27.60;25.40;;;20.90;1.00;;;;;;5050118;28;20422;-76
2021/04/20 10:45:40;;;;;;;26.87;24.77;;;20.60;1.00;;;;;;5053469;28;20418;-76
2021/04/20 10:48:08;;;;;;;28.20;26.10;;;20.20;1.00;;;;;;5051186;28;20905;-75
2021/04/20 10:50:36;;;;;;;27.93;25.93;;;19.40;1.00;;;;;;5053621;28;20428;-76
2021/04/20 10:53:12;;;;;;;30.17;27.57;;;19.20;1.00;;;;;;5051846;28;20415;-75
2021/04/20 10:55:46;;;;;;;25.43;23.33;;;19.60;1.00;;;;;;5053675;28;21122;-76
2021/04/20 10:58:13;;;;;;;23.03;21.33;;;20.30;1.00;;;;;;5051901;28;20406;-76
2021/04/20 11:00:39;;;;;;;23.07;21.47;;;20.30;1.00;;;;;;5052419;28;20426;-75
2021/04/20 11:03:06;;;;;;;21.63;19.93;;;20.80;1.00;;;;;;5050841;28;20406;-76
2021/04/20 11:05:32;;;;;;;22.93;21.17;;;21.10;1.00;;;;;;5053290;28;20574;-76
2021/04/20 11:07:58;;;;;;;21.80;20.20;;;21.30;1.00;;;;;;5053140;28;20419;-75
2021/04/20 11:10:33;;;;;;;21.47;19.97;;;21.00;1.00;;;;;;5052282;28;20426;-76
2021/04/20 11:12:59;;;;;;;25.17;22.80;;;19.50;1.00;;;;;;5052896;28;20175;-75
2021/04/20 11:15:27;;;;;;;20.80;19.10;;;18.50;1.00;;;;;;5053029;28;20461;-77
2021/04/20 11:17:55;;;;;;;17.13;15.63;;;18.00;1.00;;;;;;5052884;28;20190;-76
2021/04/20 11:20:40;;;;;;;21.37;19.37;;;18.20;1.00;;;;;;5051480;28;20894;-75
2021/04/20 11:23:11;;;;;;;19.33;17.63;;;18.00;1.00;;;;;;5048308;28;20434;-78
2021/04/20 11:25:55;;;;;;;18.97;17.47;;;18.00;1.00;;;;;;5052700;28;20442;-75
2021/04/20 11:28:33;;;;;;;20.07;18.37;;;17.30;1.00;;;;;;5051617;28;20464;-74
2021/04/20 11:31:02;;;;;;;19.93;17.93;;;18.00;1.00;;;;;;5050941;28;20411;-75
2021/04/20 11:33:48;;;;;;;19.37;17.67;;;18.00;1.00;;;;;;5050231;28;20836;-74
2021/04/20 11:36:22;;;;;;;19.33;17.73;;;17.40;1.00;;;;;;5051289;28;20588;-75
2021/04/20 11:38:55;;;;;;;19.47;17.70;;;16.80;68.10;;;;;;5049989;28;20434;-76
2021/04/20 11:41:38;;;;;;;18.70;17.03;;;17.20;16.60;;;;;;5052259;28;20937;-74
2021/04/20 11:44:05;;;;;;;18.30;16.70;;;17.60;1.00;;;;;;5053539;28;20944;-75
2021/04/20 11:46:33;;;;;;;20.43;18.57;;;17.70;1.00;;;;;;5053743;28;20425;-75
2021/04/20 11:49:19;;;;;;;19.30;17.50;;;17.30;1.00;;;;;;5053043;28;20841;-75
2021/04/20 11:51:46;;;;;;;19.13;17.37;;;17.00;39.00;;;;;;5052790;28;20436;-74
2021/04/20 11:54:28;;;;;;;19.33;17.53;;;17.30;1.00;;;;;;5053077;28;20945;-75
2021/04/20 11:56:59;;;;;;;18.53;16.90;;;17.60;1.00;;;;;;5053109;28;20469;-76
2021/04/20 11:59:25;;;;;;;18.40;16.80;;;17.40;1.00;;;;;;5052090;28;20454;-75
2021/04/20 12:01:53;;;;;;;16.97;15.47;;;17.10;33.20;;;;;;5051667;28;20454;-76
2021/04/20 12:04:27;;;;;;;17.07;15.50;;;16.90;1.00;;;;;;5051114;28;20425;-75
2021/04/20 12:06:54;;;;;;;17.23;15.53;;;16.70;1.00;;;;;;5051708;28;20419;-75
2021/04/20 12:09:22;;;;;;;18.47;16.87;;;16.80;1.00;;;;;;5053028;28;20517;-75
2021/04/20 12:11:48;;;;;;;17.17;15.57;;;16.50;53.80;;;;;;5051700;28;20430;-76
2021/04/20 12:14:19;;;;;;;17.80;16.30;;;16.20;58.80;;;;;;5053200;28;20704;-75
2021/04/20 12:16:47;;;;;;;18.07;16.27;;;16.30;70.80;;;;;;5052934;28;21040;-76
2021/04/20 12:19:16;;;;;;;16.87;15.27;;;16.60;56.80;;;;;;5052921;28;20415;-76
2021/04/20 12:21:46;;;;;;;17.30;15.60;;;17.30;1.00;;;;;;5053190;28;20849;-74
2021/04/20 12:24:16;;;;;;;16.43;14.90;;;17.70;1.00;;;;;;5052900;28;20410;-76
2021/04/20 12:26:46;;;;;;;16.30;14.60;;;17.60;1.00;;;;;;5052901;28;20423;-75
2021/04/20 12:29:14;;;;;;;15.53;14.13;;;17.10;1.00;;;;;;5052581;28;21028;-75
2021/04/20 12:31:40;;;;;;;16.33;14.93;;;17.10;1.00;;;;;;5053252;28;20917;-75
2021/04/20 12:34:07;;;;;;;16.90;15.33;;;17.00;1.00;;;;;;5052832;28;20422;-77
2021/04/20 12:36:50;;;;;;;13.97;12.63;;;17.30;1.00;;;;;;5052553;28;20485;-75
2021/04/20 12:39:36;;;;;;;15.30;13.80;;;17.20;1.00;;;;;;5052373;28;20751;-75
2021/04/20 12:42:09;;;;;;;14.20;12.90;;;16.70;1.00;;;;;;5050976;28;20498;-74
2021/04/20 12:44:41;;;;;;;15.17;13.87;;;16.30;1.00;;;;;;5052530;28;20458;-77
2021/04/20 12:47:09;;;;;;;14.83;13.30;;;16.60;1.00;;;;;;5052282;28;20422;-75
2021/04/20 12:49:37;;;;;;;14.60;13.10;;;16.50;1.00;;;;;;5050878;28;20430;-75
2021/04/20 12:52:10;;;;;;;15.97;14.47;;;16.40;1.00;;;;;;5052285;28;20441;-75
2021/04/20 12:54:39;;;;;;;14.40;13.20;;;16.80;1.00;;;;;;5051782;28;20426;-75
2021/04/20 12:57:12;;;;;;;15.30;13.87;;;17.10;1.00;;;;;;5050859;28;20572;-74
2021/04/20 12:59:44;;;;;;;15.43;14.07;;;17.10;1.00;;;;;;5052359;28;20422;-75
2021/04/20 13:02:11;;;;;;;14.50;13.20;;;17.20;1.00;;;;;;5052345;28;20426;-75